Time;durP1;ratioP1;P1;durP2;ratioP2;P2;SDS_P1;SDS_P2;PMS_P1;PMS_P2;Temp;Humidity;BMP_temperature;BMP_pressure;BME280_temperature;BME280_humidity;BME280_pressure;Samples;Min_cycle;Max_cycle;Signal;HPM_P1;HPM_P2
2021/07/28 00:00:43;;;;;;;;;;;;;;;;;;5095227;28;20348;-71
2021/07/28 00:03:09;;;;;;;;;;;;;;;;;;5094900;28;19912;-70
2021/07/28 00:05:35;;;;;;;;;;;;;;;;;;5095240;28;19936;-71
2021/07/28 00:08:01;;;;;;;;;;;;;;;;;;5095114;28;19991;-71
2021/07/28 00:10:27;;;;;;;;;;;;;;;;;;5094646;28;20066;-70
2021/07/28 00:12:53;;;;;;;;;;;;;;;;;;5095027;28;19957;-71
2021/07/28 00:15:19;;;;;;;;;;;;;;;;;;5094378;28;19922;-71
2021/07/28 00:17:49;;;;;;;;;;;;;;;;;;5093679;28;19991;-70
2021/07/28 00:20:28;;;;;;;;;;;;;;;;;;5094542;28;19986;-70
2021/07/28 00:25:39;;;;;;;;;;;;;;;;;;5094868;28;19926;-71
2021/07/28 00:28:05;;;;;;;;;;;;;;;;;;5093601;28;19904;-71
2021/07/28 00:32:07;;;;;;;;;;;;;;;;;;5092010;27;20279;-70
2021/07/28 00:34:33;;;;;;;;;;;;;;;;;;5091457;28;19916;-70
2021/07/28 00:36:59;;;;;;;;;;;;;;;;;;5089691;28;19912;-71
2021/07/28 00:39:25;;;;;;;;;;;;;;;;;;5091371;28;19915;-71
2021/07/28 00:41:51;;;;;;;;;;;;;;;;;;5090078;28;19915;-70
2021/07/28 00:44:17;;;;;;;;;;;;;;;;;;5091341;28;19943;-70
2021/07/28 00:46:42;;;;;;;;;;;;;;;;;;5091222;28;20303;-70
2021/07/28 00:49:08;;;;;;;;;;;;;;;;;;5091433;28;19909;-70
2021/07/28 00:51:34;;;;;;;;;;;;;;;;;;5090966;28;19916;-70
2021/07/28 00:54:00;;;;;;;;;;;;;;;;;;5091676;28;19908;-71
2021/07/28 00:56:27;;;;;;;;;;;;;;;;;;5091922;28;19919;-70
2021/07/28 00:58:53;;;;;;;;;;;;;;;;;;5090964;28;19962;-71
2021/07/28 01:01:19;;;;;;;;;;;;;;;;;;5090921;28;19908;-71
2021/07/28 01:03:45;;;;;;;;;;;;;;;;;;5090925;28;20364;-70
2021/07/28 01:06:11;;;;;;;;;;;;;;;;;;5090619;28;19908;-71
2021/07/28 01:08:37;;;;;;;;;;;;;;;;;;5089574;28;20380;-70
2021/07/28 01:11:02;;;;;;;;;;;;;;;;;;5091037;28;19923;-71
2021/07/28 01:13:34;;;;;;;;;;;;;;;;;;5090336;28;19912;-70
2021/07/28 01:16:00;;;;;;;;;;;;;;;;;;5090790;28;20288;-70
2021/07/28 01:18:26;;;;;;;;;;;;;;;;;;5091090;28;19912;-70
2021/07/28 01:20:52;;;;;;;;;;;;;;;;;;5090196;28;19912;-70
2021/07/28 01:23:18;;;;;;;;;;;;;;;;;;5090521;28;19916;-70
2021/07/28 01:25:44;;;;;;;;;;;;;;;;;;5090176;28;19908;-70
2021/07/28 01:28:10;;;;;;;;;;;;;;;;;;5089168;28;19908;-70
2021/07/28 01:30:36;;;;;;;;;;;;;;;;;;5088840;28;20293;-69
2021/07/28 01:33:02;;;;;;;;;;;;;;;;;;5089894;28;19915;-70
2021/07/28 01:35:28;;;;;;;;;;;;;;;;;;5090329;28;19995;-70
2021/07/28 01:37:54;;;;;;;;;;;;;;;;;;5090286;28;19951;-71
2021/07/28 01:40:20;;;;;;;;;;;;;;;;;;5089752;28;19909;-71
2021/07/28 01:42:46;;;;;;;;;;;;;;;;;;5079101;28;19912;-71
2021/07/28 01:45:12;;;;;;;;;;;;;;;;;;5077088;28;19999;-71
2021/07/28 01:47:38;;;;;;;;;;;;;;;;;;5076218;28;19909;-71
2021/07/28 01:50:07;;;;;;;;;;;;;;;;;;5076483;28;19913;-71
2021/07/28 01:52:33;;;;;;;;;;;;;;;;;;5076462;28;20329;-71
2021/07/28 01:54:59;;;;;;;;;;;;;;;;;;5076075;28;19909;-71
2021/07/28 01:57:25;;;;;;;;;;;;;;;;;;5076354;28;19915;-71
2021/07/28 01:59:51;;;;;;;;;;;;;;;;;;5076428;28;20460;-71
2021/07/28 02:02:17;;;;;;;;;;;;;;;;;;5075924;28;19909;-71
2021/07/28 02:04:43;;;;;;;;;;;;;;;;;;5076244;28;20322;-70
2021/07/28 02:07:09;;;;;;;;;;;;;;;;;;5076548;28;19930;-71
2021/07/28 02:09:35;;;;;;;;;;;;;;;;;;5075799;28;19932;-70
2021/07/28 02:12:01;;;;;;;;;;;;;;;;;;5076277;28;19952;-70
2021/07/28 02:14:27;;;;;;;;;;;;;;;;;;5074846;28;19909;-70
2021/07/28 02:16:53;;;;;;;;;;;;;;;;;;5075644;28;19913;-71
2021/07/28 02:19:19;;;;;;;;;;;;;;;;;;5076022;28;19985;-71
2021/07/28 02:21:45;;;;;;;;;;;;;;;;;;5074537;28;20378;-70
2021/07/28 02:24:11;;;;;;;;;;;;;;;;;;5076339;28;19916;-70
2021/07/28 02:26:37;;;;;;;;;;;;;;;;;;5075896;28;19912;-70
2021/07/28 02:29:03;;;;;;;;;;;;;;;;;;5075558;28;20384;-70
2021/07/28 02:31:29;;;;;;;;;;;;;;;;;;5091010;28;19949;-70
2021/07/28 02:33:55;;;;;;;;;;;;;;;;;;5095981;28;19994;-70
2021/07/28 02:36:21;;;;;;;;;;;;;;;;;;5095471;28;20345;-70
2021/07/28 02:38:47;;;;;;;;;;;;;;;;;;5096110;28;19915;-70
2021/07/28 02:41:13;;;;;;;;;;;;;;;;;;5095910;28;20000;-70
2021/07/28 02:43:39;;;;;;;;;;;;;;;;;;5095317;28;19908;-73
2021/07/28 02:46:05;;;;;;;;;;;;;;;;;;5095722;28;19908;-71
2021/07/28 02:48:31;;;;;;;;;;;;;;;;;;5095685;28;19919;-70
2021/07/28 02:50:57;;;;;;;;;;;;;;;;;;5095179;28;20315;-71
2021/07/28 02:53:24;;;;;;;;;;;;;;;;;;5094817;28;19922;-71
2021/07/28 02:55:50;;;;;;;;;;;;;;;;;;5095334;28;19998;-70
2021/07/28 02:58:16;;;;;;;;;;;;;;;;;;5095200;28;19948;-70
2021/07/28 03:01:32;;;;;;;;;;;;;;;;;;5112045;27;20007;-70
2021/07/28 03:03:58;;;;;;;;;;;;;;;;;;5111466;28;20295;-71
2021/07/28 03:06:24;;;;;;;;;;;;;;;;;;5111703;28;19908;-70
2021/07/28 03:08:50;;;;;;;;;;;;;;;;;;5111989;28;19911;-70
2021/07/28 03:11:16;;;;;;;;;;;;;;;;;;5111263;28;19908;-70
2021/07/28 03:13:42;;;;;;;;;;;;;;;;;;5111665;28;19912;-70
2021/07/28 03:16:08;;;;;;;;;;;;;;;;;;5111513;28;19908;-70
2021/07/28 03:18:34;;;;;;;;;;;;;;;;;;5111083;28;19923;-70
2021/07/28 03:21:00;;;;;;;;;;;;;;;;;;5111439;28;19920;-70
2021/07/28 03:23:26;;;;;;;;;;;;;;;;;;5111427;28;19958;-70
2021/07/28 03:25:52;;;;;;;;;;;;;;;;;;5110961;28;19908;-70
2021/07/28 03:28:18;;;;;;;;;;;;;;;;;;5111648;28;20339;-70
2021/07/28 03:30:44;;;;;;;;;;;;;;;;;;5111354;28;19914;-70
2021/07/28 03:33:10;;;;;;;;;;;;;;;;;;5110909;28;19965;-70
2021/07/28 03:35:36;;;;;;;;;;;;;;;;;;5111184;28;19947;-70
2021/07/28 03:38:02;;;;;;;;;;;;;;;;;;5111091;28;19909;-70
2021/07/28 03:40:29;;;;;;;;;;;;;;;;;;5110673;28;19916;-70
2021/07/28 03:42:55;;;;;;;;;;;;;;;;;;5111471;28;19918;-70
2021/07/28 03:45:21;;;;;;;;;;;;;;;;;;5111598;28;20434;-70
2021/07/28 03:47:47;;;;;;;;;;;;;;;;;;5110650;28;19998;-70
2021/07/28 03:50:13;;;;;;;;;;;;;;;;;;5092669;28;19955;-70
2021/07/28 03:52:39;;;;;;;;;;;;;;;;;;5092694;28;20490;-70
2021/07/28 03:55:05;;;;;;;;;;;;;;;;;;5110453;28;20002;-71
2021/07/28 03:57:31;;;;;;;;;;;;;;;;;;5110762;28;20356;-70
2021/07/28 03:59:57;;;;;;;;;;;;;;;;;;5110533;28;19920;-71
2021/07/28 04:02:23;;;;;;;;;;;;;;;;;;5110302;28;19932;-70
2021/07/28 04:04:49;;;;;;;;;;;;;;;;;;5110601;28;19908;-70
2021/07/28 04:07:15;;;;;;;;;;;;;;;;;;5092175;28;19908;-70
2021/07/28 04:09:40;;;;;;;;;;;;;;;;;;5110822;28;19948;-70
2021/07/28 04:12:06;;;;;;;;;;;;;;;;;;5101605;28;19943;-70
2021/07/28 04:14:33;;;;;;;;;;;;;;;;;;5096439;28;20306;-70
2021/07/28 04:16:59;;;;;;;;;;;;;;;;;;5096973;28;19908;-70
2021/07/28 04:19:24;;;;;;;;;;;;;;;;;;5096653;28;19912;-70
2021/07/28 04:21:50;;;;;;;;;;;;;;;;;;5096774;28;19916;-70
2021/07/28 04:24:16;;;;;;;;;;;;;;;;;;5097328;28;20368;-70
2021/07/28 04:26:42;;;;;;;;;;;;;;;;;;5096671;28;19961;-70
2021/07/28 04:29:08;;;;;;;;;;;;;;;;;;5096187;28;19915;-70
2021/07/28 04:31:34;;;;;;;;;;;;;;;;;;5096545;28;19931;-70
2021/07/28 04:34:00;;;;;;;;;;;;;;;;;;5096530;28;19964;-70
2021/07/28 04:36:26;;;;;;;;;;;;;;;;;;5096380;28;20376;-70
2021/07/28 04:38:52;;;;;;;;;;;;;;;;;;5096428;28;19915;-70
2021/07/28 04:41:18;;;;;;;;;;;;;;;;;;5096262;28;19920;-70
2021/07/28 04:43:44;;;;;;;;;;;;;;;;;;5095951;28;19994;-70
2021/07/28 04:46:10;;;;;;;;;;;;;;;;;;5096261;28;19912;-70
2021/07/28 04:48:36;;;;;;;;;;;;;;;;;;5096216;28;19908;-70
2021/07/28 04:51:02;;;;;;;;;;;;;;;;;;5095715;28;19908;-71
2021/07/28 04:53:28;;;;;;;;;;;;;;;;;;5096149;28;20014;-71
2021/07/28 04:55:54;;;;;;;;;;;;;;;;;;5096070;28;19915;-70
2021/07/28 04:58:20;;;;;;;;;;;;;;;;;;5095525;28;19912;-71
2021/07/28 05:00:46;;;;;;;;;;;;;;;;;;5095689;28;20035;-70
2021/07/28 05:03:13;;;;;;;;;;;;;;;;;;5095998;28;20380;-70
2021/07/28 05:05:39;;;;;;;;;;;;;;;;;;5095443;28;20292;-70
2021/07/28 05:08:05;;;;;;;;;;;;;;;;;;5096038;28;19908;-70
2021/07/28 05:10:31;;;;;;;;;;;;;;;;;;5077728;28;20001;-70
2021/07/28 05:12:57;;;;;;;;;;;;;;;;;;5096077;28;19912;-70
2021/07/28 05:15:23;;;;;;;;;;;;;;;;;;5096315;28;20390;-70
2021/07/28 05:17:49;;;;;;;;;;;;;;;;;;5095196;28;19927;-70
2021/07/28 05:20:16;;;;;;;;;;;;;;;;;;5095529;28;19962;-70
2021/07/28 05:22:42;;;;;;;;;;;;;;;;;;5076673;28;20376;-70
2021/07/28 05:25:08;;;;;;;;;;;;;;;;;;5095256;28;19954;-70
2021/07/28 05:27:34;;;;;;;;;;;;;;;;;;5095488;28;19908;-70
2021/07/28 05:30:00;;;;;;;;;;;;;;;;;;5095355;28;19965;-70
2021/07/28 05:32:26;;;;;;;;;;;;;;;;;;5094948;28;19908;-70
2021/07/28 05:34:52;;;;;;;;;;;;;;;;;;5095332;28;19950;-70
2021/07/28 05:37:18;;;;;;;;;;;;;;;;;;5095444;28;20368;-70
2021/07/28 05:39:44;;;;;;;;;;;;;;;;;;5094689;28;19923;-70
2021/07/28 05:42:11;;;;;;;;;;;;;;;;;;5095799;28;19919;-70
2021/07/28 05:44:37;;;;;;;;;;;;;;;;;;5095130;28;19974;-70
2021/07/28 05:47:03;;;;;;;;;;;;;;;;;;5076506;28;19915;-71
2021/07/28 05:49:29;;;;;;;;;;;;;;;;;;5076856;28;20380;-70
2021/07/28 05:51:55;;;;;;;;;;;;;;;;;;5094919;28;19912;-70
2021/07/28 05:54:21;;;;;;;;;;;;;;;;;;5094803;28;19914;-70
2021/07/28 05:56:47;;;;;;;;;;;;;;;;;;5094988;28;20356;-70
2021/07/28 05:59:12;;;;;;;;;;;;;;;;;;5094550;28;19943;-70
2021/07/28 06:01:38;;;;;;;;;;;;;;;;;;5094466;28;19908;-70
2021/07/28 06:04:05;;;;;;;;;;;;;;;;;;5094762;28;19908;-69
2021/07/28 06:06:31;;;;;;;;;;;;;;;;;;5076594;28;19908;-70
2021/07/28 06:08:57;;;;;;;;;;;;;;;;;;5094251;28;19915;-70
2021/07/28 06:11:23;;;;;;;;;;;;;;;;;;5094845;28;19987;-70
2021/07/28 06:13:49;;;;;;;;;;;;;;;;;;5094497;28;19975;-70
2021/07/28 06:16:15;;;;;;;;;;;;;;;;;;5095019;28;19954;-70
2021/07/28 06:18:41;;;;;;;;;;;;;;;;;;5095137;28;19916;-70
2021/07/28 06:21:06;;;;;;;;;;;;;;;;;;5093973;28;20398;-70
2021/07/28 06:23:32;;;;;;;;;;;;;;;;;;5094426;28;19908;-70
2021/07/28 06:25:58;;;;;;;;;;;;;;;;;;5076219;28;19933;-70
2021/07/28 06:28:26;;;;;;;;;;;;;;;;;;5075792;28;19942;-70
2021/07/28 06:30:52;;;;;;;;;;;;;;;;;;5094860;28;20364;-70
2021/07/28 06:33:18;;;;;;;;;;;;;;;;;;5076255;28;19956;-70
2021/07/28 06:35:44;;;;;;;;;;;;;;;;;;5075472;28;19908;-70
2021/07/28 06:38:10;;;;;;;;;;;;;;;;;;5094223;28;20291;-70
2021/07/28 06:40:36;;;;;;;;;;;;;;;;;;5094137;28;19923;-70
2021/07/28 06:43:02;;;;;;;;;;;;;;;;;;5094030;28;20452;-70
2021/07/28 06:45:28;;;;;;;;;;;;;;;;;;5094160;28;19948;-71
2021/07/28 06:47:54;;;;;;;;;;;;;;;;;;5075989;28;19912;-71
2021/07/28 06:50:20;;;;;;;;;;;;;;;;;;5075545;28;20280;-71
2021/07/28 06:52:46;;;;;;;;;;;;;;;;;;5094062;28;19908;-71
2021/07/28 06:55:12;;;;;;;;;;;;;;;;;;5094056;28;19915;-71
2021/07/28 06:57:38;;;;;;;;;;;;;;;;;;5093615;28;19912;-71
2021/07/28 07:00:05;;;;;;;;;;;;;;;;;;5093624;28;19926;-71
2021/07/28 07:02:31;;;;;;;;;;;;;;;;;;5075776;28;19908;-71
2021/07/28 07:04:57;;;;;;;;;;;;;;;;;;5093359;28;19908;-71
2021/07/28 07:07:23;;;;;;;;;;;;;;;;;;5093946;28;19908;-70
2021/07/28 07:09:51;;;;;;;;;;;;;;;;;;5093905;28;19908;-71
2021/07/28 07:12:17;;;;;;;;;;;;;;;;;;5093414;28;19912;-71
2021/07/28 07:14:43;;;;;;;;;;;;;;;;;;5093923;28;19991;-71
2021/07/28 07:17:09;;;;;;;;;;;;;;;;;;5093198;28;20283;-70
2021/07/28 07:19:35;;;;;;;;;;;;;;;;;;5093720;28;19962;-70
2021/07/28 07:22:01;;;;;;;;;;;;;;;;;;5093802;28;20280;-71
2021/07/28 07:24:27;;;;;;;;;;;;;;;;;;5093360;28;19908;-70
2021/07/28 07:26:53;;;;;;;;;;;;;;;;;;5093693;28;19948;-70
2021/07/28 07:29:19;;;;;;;;;;;;;;;;;;5075594;28;19912;-70
2021/07/28 07:31:45;;;;;;;;;;;;;;;;;;5093457;28;19908;-70
2021/07/28 07:34:11;;;;;;;;;;;;;;;;;;5093786;28;20317;-70
2021/07/28 07:36:37;;;;;;;;;;;;;;;;;;5094201;28;19987;-71
2021/07/28 07:39:03;;;;;;;;;;;;;;;;;;5093248;28;19961;-70
2021/07/28 07:41:29;;;;;;;;;;;;;;;;;;5093493;28;19916;-70
2021/07/28 07:43:57;;;;;;;;;;;;;;;;;;5093847;28;19916;-70
2021/07/28 07:46:23;;;;;;;;;;;;;;;;;;5093867;28;19908;-70
2021/07/28 07:48:49;;;;;;;;;;;;;;;;;;5097338;28;20447;-70
2021/07/28 07:51:15;;;;;;;;;;;;;;;;;;5097209;28;19916;-70
2021/07/28 07:53:41;;;;;;;;;;;;;;;;;;5096932;28;19908;-70
2021/07/28 07:56:07;;;;;;;;;;;;;;;;;;5079024;28;19951;-70
2021/07/28 07:58:33;;;;;;;;;;;;;;;;;;5097259;28;20010;-69
2021/07/28 08:00:59;;;;;;;;;;;;;;;;;;5078421;28;19924;-70
2021/07/28 08:03:25;;;;;;;;;;;;;;;;;;5078870;28;20394;-70
2021/07/28 08:05:51;;;;;;;;;;;;;;;;;;5097082;28;19919;-70
2021/07/28 08:08:17;;;;;;;;;;;;;;;;;;5096751;28;20396;-70
2021/07/28 08:10:43;;;;;;;;;;;;;;;;;;5097082;28;19908;-70
2021/07/28 08:13:09;;;;;;;;;;;;;;;;;;5097446;28;19914;-70
2021/07/28 08:15:35;;;;;;;;;;;;;;;;;;5096469;28;19908;-71
2021/07/28 08:18:02;;;;;;;;;;;;;;;;;;5096819;28;19908;-71
2021/07/28 08:20:28;;;;;;;;;;;;;;;;;;5096287;28;19922;-71
2021/07/28 08:22:54;;;;;;;;;;;;;;;;;;5078580;28;19986;-71
2021/07/28 08:25:20;;;;;;;;;;;;;;;;;;5096684;28;19919;-71
2021/07/28 08:27:46;;;;;;;;;;;;;;;;;;5078084;28;19912;-71
2021/07/28 08:30:13;;;;;;;;;;;;;;;;;;5078291;28;19908;-71
2021/07/28 08:32:39;;;;;;;;;;;;;;;;;;5096402;28;20368;-71
2021/07/28 08:35:05;;;;;;;;;;;;;;;;;;5095948;28;19915;-71
2021/07/28 08:37:31;;;;;;;;;;;;;;;;;;5096349;28;19908;-71
2021/07/28 08:39:57;;;;;;;;;;;;;;;;;;5078099;28;19919;-71
2021/07/28 08:42:23;;;;;;;;;;;;;;;;;;5096015;28;19908;-71
2021/07/28 08:44:49;;;;;;;;;;;;;;;;;;5096504;28;19923;-71
2021/07/28 08:47:15;;;;;;;;;;;;;;;;;;5096300;28;20288;-71
2021/07/28 08:49:41;;;;;;;;;;;;;;;;;;5095846;28;19908;-71
2021/07/28 08:52:07;;;;;;;;;;;;;;;;;;5096644;28;19908;-71
2021/07/28 08:54:33;;;;;;;;;;;;;;;;;;5096119;28;20397;-71
2021/07/28 08:56:59;;;;;;;;;;;;;;;;;;5095624;28;19914;-71
2021/07/28 08:59:25;;;;;;;;;;;;;;;;;;5095553;28;19962;-70
2021/07/28 09:01:51;;;;;;;;;;;;;;;;;;5095948;28;19908;-71
2021/07/28 09:04:17;;;;;;;;;;;;;;;;;;5095282;28;19919;-71
2021/07/28 09:06:43;;;;;;;;;;;;;;;;;;5095739;28;19908;-71
2021/07/28 09:09:10;;;;;;;;;;;;;;;;;;5095619;28;19908;-72
2021/07/28 09:11:36;;;;;;;;;;;;;;;;;;5095217;28;19947;-71
2021/07/28 09:14:02;;;;;;;;;;;;;;;;;;5095678;28;19909;-73
2021/07/28 09:16:28;;;;;;;;;;;;;;;;;;5095770;28;20360;-70
2021/07/28 09:18:54;;;;;;;;;;;;;;;;;;5095251;28;19908;-72
2021/07/28 09:21:20;;;;;;;;;;;;;;;;;;5095567;28;19920;-71
2021/07/28 09:23:46;;;;;;;;;;;;;;;;;;5095175;28;19991;-71
2021/07/28 09:26:12;;;;;;;;;;;;;;;;;;5095546;28;19908;-71
2021/07/28 09:28:39;;;;;;;;;;;;;;;;;;5095962;28;20395;-71
2021/07/28 09:31:05;;;;;;;;;;;;;;;;;;5095284;28;19916;-71
2021/07/28 09:33:31;;;;;;;;;;;;;;;;;;5095367;28;19915;-71
2021/07/28 09:35:57;;;;;;;;;;;;;;;;;;5095243;28;19908;-71
2021/07/28 09:38:23;;;;;;;;;;;;;;;;;;5095203;28;19908;-71
2021/07/28 09:40:49;;;;;;;;;;;;;;;;;;5095181;28;19916;-70
2021/07/28 09:43:15;;;;;;;;;;;;;;;;;;5095440;28;19954;-71
2021/07/28 09:45:41;;;;;;;;;;;;;;;;;;5094779;28;19915;-71
2021/07/28 09:48:07;;;;;;;;;;;;;;;;;;5095108;28;19912;-71
2021/07/28 09:50:33;;;;;;;;;;;;;;;;;;5076954;28;19908;-71
2021/07/28 09:52:59;;;;;;;;;;;;;;;;;;5094848;28;20302;-71
2021/07/28 09:55:27;;;;;;;;;;;;;;;;;;5095216;28;19909;-71
2021/07/28 09:57:57;;;;;;;12.25;4.47;;;;;;;;;;5093813;28;20372;-71
2021/07/28 10:00:25;;;;;;;7.70;4.03;;;;;;;;;;5093814;28;20044;-71
2021/07/28 10:02:52;;;;;;;8.25;3.70;;;;;;;;;;5094319;28;20027;-71
2021/07/28 10:05:21;;;;;;;8.80;4.15;;;;;;;;;;5094364;28;20507;-71
2021/07/28 10:07:51;;;;;;;6.68;3.70;;;;;;;;;;5093965;28;20024;-71
2021/07/28 10:10:19;;;;;;;10.13;4.13;;;;;;;;;;5094060;28;20484;-71
2021/07/28 10:12:49;;;;;;;11.02;4.00;;;;;;;;;;5094159;28;20044;-71
2021/07/28 10:15:15;;;;;;;10.02;4.07;;;;;;;;;;5093699;28;20095;-71
2021/07/28 10:17:42;;;;;;;7.68;3.90;;;;;;;;;;5094243;28;20016;-71
2021/07/28 10:20:10;;;;;;;7.22;3.95;;;;;;;;;;5075380;28;20028;-71
2021/07/28 10:22:37;;;;;;;9.70;3.67;;;;;;;;;;5094140;28;20020;-71
2021/07/28 10:25:08;;;;;;;8.63;4.55;;;;;;;;;;5094554;28;20024;-71
2021/07/28 10:27:44;;;;;;;7.90;3.93;;;;;;;;;;5093733;28;20073;-71
2021/07/28 10:30:14;;;;;;;7.05;3.83;;;;;;;;;;5093927;28;20251;-71
2021/07/28 10:32:40;;;;;;;11.85;4.07;;;;;;;;;;5094443;28;20466;-71
2021/07/28 10:35:27;;;;;;;9.55;3.70;;;;;;;;;;5093419;28;20476;-71
2021/07/28 10:37:55;;;;;;;10.35;4.45;;;;;;;;;;5075663;28;20132;-70
2021/07/28 10:40:27;;;;;;;7.18;3.75;;;;;;;;;;5094219;28;20028;-71
2021/07/28 10:42:53;;;;;;;;;;;;;;;;;;5093861;28;20031;-71
2021/07/28 10:45:19;;;;;;;9.85;4.50;;;;;;;;;;5093764;28;19904;-71
2021/07/28 10:47:46;;;;;;;12.38;4.28;;;;;;;;;;5093908;28;20028;-70
2021/07/28 10:50:21;;;;;;;7.13;3.42;;;;;;;;;;5093249;28;20020;-71
2021/07/28 10:52:48;;;;;;;6.68;3.97;;;;;;;;;;5094101;28;20028;-70
2021/07/28 10:55:15;;;;;;;7.03;3.50;;;;;;;;;;5093171;28;20031;-71
2021/07/28 10:57:44;;;;;;;9.95;3.90;;;;;;;;;;5093507;28;20107;-70
2021/07/28 11:00:11;;;;;;;11.25;4.10;;;;;;;;;;5093288;28;20127;-71
2021/07/28 11:02:52;;;;;;;10.32;3.33;;;;;;;;;;5093109;28;20039;-70
2021/07/28 11:05:25;;;;;;;11.63;3.83;;;;;;;;;;5075380;28;20024;-71
2021/07/28 11:08:00;;;;;;;8.52;3.90;;;;;;;;;;5075418;28;20057;-70
2021/07/28 11:10:26;;;;;;;12.63;3.70;;;;;;;;;;5093750;28;20480;-71
2021/07/28 11:12:53;;;;;;;11.40;3.92;;;;;;;;;;5093436;28;20490;-71
2021/07/28 11:15:19;;;;;;;8.90;3.33;;;;;;;;;;5093484;28;20020;-70
2021/07/28 11:17:46;;;;;;;10.95;4.95;;;;;;;;;;5092961;28;20020;-70
2021/07/28 11:20:44;;;;;;;9.65;3.88;;;;;;;;;;5093477;28;20032;-71
2021/07/28 11:23:27;;;;;;;11.68;4.20;;;;;;;;;;5052857;28;20105;-71
2021/07/28 11:25:54;;;;;;;6.25;3.67;;;;;;;;;;5097738;28;20031;-70
2021/07/28 11:28:21;;;;;;;8.80;3.53;;;;;;;;;;5097354;28;20032;-70
2021/07/28 11:31:05;;;;;;;7.28;3.80;;;;;;;;;;5096962;28;20023;-70
2021/07/28 11:33:32;;;;;;;8.63;3.35;;;;;;;;;;5097236;28;20089;-71
2021/07/28 11:35:58;;;;;;;8.20;3.88;;;;;;;;;;5097319;28;20020;-70
2021/07/28 11:38:26;;;;;;;8.50;3.60;;;;;;;;;;5096921;28;20092;-71
2021/07/28 11:40:55;;;;;;;7.07;3.35;;;;;;;;;;5097156;28;20047;-70
2021/07/28 11:43:28;;;;;;;12.68;3.25;;;;;;;;;;5097133;28;20023;-70
2021/07/28 11:45:58;;;;;;;11.77;4.00;;;;;;;;;;5096625;28;20024;-71
2021/07/28 11:48:28;;;;;;;6.72;3.40;;;;;;;;;;5096959;28;20016;-71
2021/07/28 11:50:54;;;;;;;8.35;3.35;;;;;;;;;;5096908;28;20024;-71
2021/07/28 11:53:26;;;;;;;8.23;3.20;;;;;;;;;;5096331;28;20027;-71
2021/07/28 11:55:53;;;;;;;11.05;3.42;;;;;;;;;;5096848;28;20082;-71
2021/07/28 11:58:20;;;;;;;7.57;3.33;;;;;;;;;;5096862;28;20027;-71
2021/07/28 12:00:50;;;;;;;8.05;3.60;;;;;;;;;;5095884;28;20054;-71
2021/07/28 12:03:25;;;;;;;7.45;2.85;;;;;;;;;;5096378;28;20056;-71
2021/07/28 12:06:07;;;;;;;9.88;3.55;;;;;;;;;;5096429;28;20036;-71
2021/07/28 12:08:37;;;;;;;12.40;3.85;;;;;;;;;;5096760;28;20024;-71
2021/07/28 12:11:07;;;;;;;10.68;4.00;;;;;;;;;;5097033;28;20428;-71
2021/07/28 12:13:43;;;;;;;12.20;4.05;;;;;;;;;;5096118;28;20024;-71
2021/07/28 12:16:09;;;;;;;8.30;3.03;;;;;;;;;;5078301;28;20479;-71
2021/07/28 12:18:46;;;;;;;7.30;3.40;;;;;;;;;;5096497;28;20028;-71
2021/07/28 12:21:12;;;;;;;6.63;3.63;;;;;;;;;;5095942;28;20064;-71
2021/07/28 12:23:49;;;;;;;6.97;2.95;;;;;;;;;;5096223;28;20031;-71
2021/07/28 12:26:15;;;;;;;8.52;3.95;;;;;;;;;;5096215;28;20037;-71
2021/07/28 12:28:48;;;;;;;12.35;3.65;;;;;;;;;;5077639;28;20032;-71
2021/07/28 12:31:35;;;;;;;12.40;4.30;;;;;;;;;;5096710;28;20020;-71
2021/07/28 12:34:22;;;;;;;10.07;3.90;;;;;;;;;;5076956;28;20094;-71
2021/07/28 12:36:48;;;;;;;10.27;4.05;;;;;;;;;;5096013;28;20388;-71
2021/07/28 12:39:15;;;;;;;12.40;3.47;;;;;;;;;;5096231;28;20043;-71
2021/07/28 12:41:41;;;;;;;9.73;3.13;;;;;;;;;;5095721;28;20101;-71
2021/07/28 12:44:07;;;;;;;10.55;3.50;;;;;;;;;;5095919;28;20028;-71
2021/07/28 12:46:33;;;;;;;8.85;3.38;;;;;;;;;;5096148;28;20077;-71
2021/07/28 12:49:00;;;;;;;11.95;4.22;;;;;;;;;;5095522;28;20031;-71
2021/07/28 12:51:26;;;;;;;6.28;3.25;;;;;;;;;;5095854;28;20028;-71
2021/07/28 12:53:52;;;;;;;8.85;3.40;;;;;;;;;;5077691;28;20502;-71
2021/07/28 15:22:49;;;;;;;14.95;3.83;;;;;;;;;;5090996;28;20475;-70
2021/07/28 15:25:15;;;;;;;15.00;3.78;;;;;;;;;;5090591;28;20051;-70
2021/07/28 15:27:41;;;;;;;15.60;4.03;;;;;;;;;;5091176;28;20095;-70
2021/07/28 15:30:08;;;;;;;14.82;5.07;;;;;;;;;;5090522;28;20404;-71
2021/07/28 15:32:34;;;;;;;18.05;6.97;;;;;;;;;;5088950;28;20039;-70
2021/07/28 15:35:00;;;;;;;18.17;5.60;;;;;;;;;;5090469;28;20423;-70
2021/07/28 15:37:27;;;;;;;20.02;5.13;;;;;;;;;;5091054;28;20052;-71
2021/07/28 15:40:26;;;;;;;12.07;3.90;;;;;;;;;;5090020;28;20486;-71
2021/07/28 15:42:55;;;;;;;18.85;4.13;;;;;;;;;;5056434;28;20036;-71
2021/07/28 15:45:23;;;;;;;14.95;4.82;;;;;;;;;;5090347;28;20019;-71
2021/07/28 15:47:49;;;;;;;22.42;5.57;;;;;;;;;;5088566;28;20024;-71
2021/07/28 15:50:16;;;;;;;15.30;5.95;;;;;;;;;;5090185;28;20489;-72
2021/07/28 15:52:43;;;;;;;15.75;6.00;;;;;;;;;;5088885;28;20039;-72
2021/07/28 15:55:11;;;;;;;16.38;4.40;;;;;;;;;;5089827;28;20387;-72
2021/07/28 15:57:37;;;;;;;12.23;3.90;;;;;;;;;;5090071;28;20016;-72
2021/07/28 16:00:04;;;;;;;15.93;5.22;;;;;;;;;;5088738;28;20043;-71
2021/07/28 16:02:31;;;;;;;9.68;4.95;;;;;;;;;;5089679;28;20027;-72
2021/07/28 16:04:57;;;;;;;16.05;4.30;;;;;;;;;;5088624;28;20501;-72
2021/07/28 16:07:25;;;;;;;14.48;4.13;;;;;;;;;;5089619;28;20036;-71
2021/07/28 16:09:51;;;;;;;13.02;3.03;;;;;;;;;;5089841;28;20554;-72
2021/07/28 16:12:18;;;;;;;10.57;3.50;;;;;;;;;;5089704;28;20036;-71
2021/07/28 16:15:01;;;;;;;15.20;4.05;;;;;;;;;;5089325;28;20481;-71
2021/07/28 16:17:47;;;;;;;16.80;4.43;;;;;;;;;;5089775;28;20504;-71
2021/07/28 16:20:18;;;;;;;30.45;4.35;;;;;;;;;;5089528;28;20033;-72
2021/07/28 16:22:52;;;;;;;28.40;4.03;;;;;;;;;;5079892;28;20052;-71
2021/07/28 16:25:18;;;;;;;9.48;2.50;;;;;;;;;;5076359;28;20028;-71
2021/07/28 16:27:45;;;;;;;13.35;3.50;;;;;;;;;;5075911;28;20509;-71
2021/07/28 16:30:11;;;;;;;16.00;3.30;;;;;;;;;;5074238;28;20104;-71
2021/07/28 16:32:38;;;;;;;16.83;3.10;;;;;;;;;;5075936;28;20035;-72
2021/07/28 16:35:04;;;;;;;14.63;2.90;;;;;;;;;;5074545;28;20017;-72
2021/07/28 16:37:30;;;;;;;10.73;2.72;;;;;;;;;;5075466;28;20389;-72
2021/07/28 16:39:56;;;;;;;18.13;3.08;;;;;;;;;;5075819;28;20024;-70
2021/07/28 16:42:23;;;;;;;12.05;3.67;;;;;;;;;;5075294;28;20497;-71
2021/07/28 16:44:49;;;;;;;13.63;3.75;;;;;;;;;;5074410;28;20118;-71
2021/07/28 16:47:15;;;;;;;14.68;3.60;;;;;;;;;;5075716;28;20025;-71
2021/07/28 16:49:41;;;;;;;12.52;3.45;;;;;;;;;;5073927;28;20474;-74
2021/07/28 16:52:07;;;;;;;12.15;3.40;;;;;;;;;;5075556;28;20449;-71
2021/07/28 16:54:33;;;;;;;13.80;3.45;;;;;;;;;;5075568;28;20023;-73
2021/07/28 16:56:59;;;;;;;11.40;3.53;;;;;;;;;;5075374;28;20133;-72
2021/07/28 16:59:26;;;;;;;15.07;3.65;;;;;;;;;;5075521;28;20086;-72
2021/07/28 17:01:52;;;;;;;14.27;4.70;;;;;;;;;;5075261;28;20016;-72
2021/07/28 17:04:18;;;;;;;10.90;3.38;;;;;;;;;;5075066;28;20052;-71
2021/07/28 17:06:45;;;;;;;24.15;4.30;;;;;;;;;;5075179;28;20101;-71
2021/07/28 17:09:13;;;;;;;24.27;5.85;;;;;;;;;;5075381;28;20024;-72
2021/07/28 17:11:40;;;;;;;9.38;3.90;;;;;;;;;;5074957;28;20178;-71
2021/07/28 17:14:06;;;;;;;14.57;5.18;;;;;;;;;;5075541;28;20150;-71
2021/07/28 17:16:33;;;;;;;16.42;5.88;;;;;;;;;;5075354;28;20052;-71
2021/07/28 17:18:59;;;;;;;16.27;6.40;;;;;;;;;;5074622;28;20025;-71
2021/07/28 17:21:26;;;;;;;13.55;5.55;;;;;;;;;;5073524;28;20094;-71
2021/07/28 17:23:52;;;;;;;12.48;5.60;;;;;;;;;;5075033;28;20025;-71
2021/07/28 17:26:18;;;;;;;13.02;5.50;;;;;;;;;;5074441;28;20497;-71
2021/07/28 17:28:44;;;;;;;15.52;5.15;;;;;;;;;;5074850;28;20082;-71
2021/07/28 17:31:10;;;;;;;15.48;4.97;;;;;;;;;;5074673;28;20103;-71
2021/07/28 17:33:36;;;;;;;13.02;4.07;;;;;;;;;;5073620;28;20024;-72
2021/07/28 17:36:06;;;;;;;11.52;3.60;;;;;;;;;;5074479;28;20028;-72
2021/07/28 17:38:36;;;;;;;12.85;4.07;;;;;;;;;;5074381;28;20017;-71
2021/07/28 17:41:05;;;;;;;11.93;3.00;;;;;;;;;;5074618;28;20024;-70
2021/07/28 17:43:32;;;;;;;13.88;3.90;;;;;;;;;;5075062;28;20025;-71
2021/07/28 17:45:58;;;;;;;15.15;3.50;;;;;;;;;;5074094;28;20021;-71
2021/07/28 17:48:24;;;;;;;19.33;4.60;;;;;;;;;;5074295;28;20101;-71
2021/07/28 17:50:51;;;;;;;17.42;4.55;;;;;;;;;;5074381;28;20032;-70
2021/07/28 17:53:17;;;;;;;15.18;4.90;;;;;;;;;;5073795;28;20154;-71
2021/07/28 17:55:47;;;;;;;12.50;3.90;;;;;;;;;;5074321;28;20025;-71
2021/07/28 17:58:14;;;;;;;13.90;4.00;;;;;;;;;;5073155;28;20483;-71
2021/07/28 18:00:40;;;;;;;11.05;3.97;;;;;;;;;;5073724;28;20051;-71
2021/07/28 18:03:10;;;;;;;12.00;4.18;;;;;;;;;;5074104;28;20020;-72
2021/07/28 18:05:37;;;;;;;15.30;4.35;;;;;;;;;;5074332;28;20017;-70
2021/07/28 18:08:04;;;;;;;15.00;4.05;;;;;;;;;;5073636;28;20024;-70
2021/07/28 18:10:30;;;;;;;13.52;3.70;;;;;;;;;;5073881;28;20024;-71
2021/07/28 18:12:56;;;;;;;14.75;4.63;;;;;;;;;;5073920;28;20108;-70
2021/07/28 18:15:22;;;;;;;12.43;3.97;;;;;;;;;;5073347;28;20378;-70
2021/07/28 18:17:50;;;;;;;12.70;4.18;;;;;;;;;;5073723;28;20017;-71
2021/07/28 18:20:16;;;;;;;16.02;4.88;;;;;;;;;;5073844;28;20031;-70
2021/07/28 18:22:44;;;;;;;15.95;4.13;;;;;;;;;;5071830;28;20086;-70